sensor_id;sensor_type;location;lat;lon;timestamp;pressure;altitude;pressure_sealevel;temperature;humidity
1616;BME280;801;47.982;7.810;2023-04-06T00:00:08;98894.03;;;5.02;71.49
1616;BME280;801;47.982;7.810;2023-04-06T00:02:36;98886.75;;;4.91;71.98
1616;BME280;801;47.982;7.810;2023-04-06T00:05:03;98884.72;;;4.86;70.96
1616;BME280;801;47.982;7.810;2023-04-06T00:07:30;98889.09;;;4.81;72.51
1616;BME280;801;47.982;7.810;2023-04-06T00:09:58;98881.94;;;4.74;72.73
1616;BME280;801;47.982;7.810;2023-04-06T00:12:25;98879.53;;;4.66;72.25
1616;BME280;801;47.982;7.810;2023-04-06T00:14:51;98877.06;;;4.71;72.98
1616;BME280;801;47.982;7.810;2023-04-06T00:17:18;98880.31;;;4.73;72.07
1616;BME280;801;47.982;7.810;2023-04-06T00:19:46;98877.06;;;4.71;72.52
1616;BME280;801;47.982;7.810;2023-04-06T00:22:12;98881.50;;;4.77;72.30
1616;BME280;801;47.982;7.810;2023-04-06T00:24:39;98878.47;;;4.74;72.25
1616;BME280;801;47.982;7.810;2023-04-06T00:27:05;98871.78;;;4.65;72.28
1616;BME280;801;47.982;7.810;2023-04-06T00:29:32;98874.66;;;4.63;72.60
1616;BME280;801;47.982;7.810;2023-04-06T00:31:58;98877.44;;;4.75;72.27
1616;BME280;801;47.982;7.810;2023-04-06T00:34:25;98870.97;;;4.57;72.92
1616;BME280;801;47.982;7.810;2023-04-06T00:36:53;98869.53;;;4.62;73.52
1616;BME280;801;47.982;7.810;2023-04-06T00:39:19;98862.84;;;4.52;73.55
1616;BME280;801;47.982;7.810;2023-04-06T00:41:49;98868.13;;;4.59;73.50
1616;BME280;801;47.982;7.810;2023-04-06T00:44:17;98866.47;;;4.65;74.44
1616;BME280;801;47.982;7.810;2023-04-06T00:46:43;98867.22;;;4.72;75.04
1616;BME280;801;47.982;7.810;2023-04-06T00:49:10;98863.16;;;4.69;74.20
1616;BME280;801;47.982;7.810;2023-04-06T00:51:36;98865.03;;;4.62;74.73
1616;BME280;801;47.982;7.810;2023-04-06T00:54:04;98867.09;;;4.60;75.80
1616;BME280;801;47.982;7.810;2023-04-06T00:56:31;98861.78;;;4.60;76.39
1616;BME280;801;47.982;7.810;2023-04-06T00:58:58;98863.59;;;4.60;76.97
1616;BME280;801;47.982;7.810;2023-04-06T01:01:25;98860.56;;;4.56;78.28
1616;BME280;801;47.982;7.810;2023-04-06T01:03:52;98857.94;;;4.49;79.29
1616;BME280;801;47.982;7.810;2023-04-06T01:06:19;98860.41;;;4.44;79.84
1616;BME280;801;47.982;7.810;2023-04-06T01:08:46;98864.19;;;4.30;80.58
1616;BME280;801;47.982;7.810;2023-04-06T01:11:13;98856.19;;;4.36;82.16
1616;BME280;801;47.982;7.810;2023-04-06T01:13:40;98853.75;;;4.28;84.05
1616;BME280;801;47.982;7.810;2023-04-06T01:16:06;98854.25;;;4.12;84.04
1616;BME280;801;47.982;7.810;2023-04-06T01:18:34;98853.31;;;4.00;85.38
1616;BME280;801;47.982;7.810;2023-04-06T01:21:01;98851.16;;;4.15;85.43
1616;BME280;801;47.982;7.810;2023-04-06T01:23:29;98852.78;;;4.23;84.88
1616;BME280;801;47.982;7.810;2023-04-06T01:25:55;98857.69;;;4.19;85.70
1616;BME280;801;47.982;7.810;2023-04-06T01:28:22;98851.59;;;4.12;87.00
1616;BME280;801;47.982;7.810;2023-04-06T01:30:48;98852.63;;;4.11;87.14
1616;BME280;801;47.982;7.810;2023-04-06T01:33:15;98851.03;;;3.97;87.60
1616;BME280;801;47.982;7.810;2023-04-06T01:35:41;98844.34;;;3.81;89.64
1616;BME280;801;47.982;7.810;2023-04-06T01:38:08;98842.94;;;3.78;90.91
1616;BME280;801;47.982;7.810;2023-04-06T01:40:36;98846.84;;;3.76;91.86
1616;BME280;801;47.982;7.810;2023-04-06T01:43:02;98839.50;;;3.71;92.17
1616;BME280;801;47.982;7.810;2023-04-06T01:45:29;98836.03;;;3.64;93.29
1616;BME280;801;47.982;7.810;2023-04-06T01:47:55;98833.59;;;3.62;92.93
1616;BME280;801;47.982;7.810;2023-04-06T01:50:22;98838.69;;;3.64;94.42
1616;BME280;801;47.982;7.810;2023-04-06T01:52:48;98836.88;;;3.58;93.91
1616;BME280;801;47.982;7.810;2023-04-06T01:55:15;98847.56;;;3.38;96.07
1616;BME280;801;47.982;7.810;2023-04-06T01:57:43;98846.94;;;3.29;97.16
1616;BME280;801;47.982;7.810;2023-04-06T02:00:10;98842.03;;;3.32;97.31
1616;BME280;801;47.982;7.810;2023-04-06T02:02:37;98843.88;;;3.32;98.31
1616;BME280;801;47.982;7.810;2023-04-06T02:05:04;98841.22;;;3.32;98.27
1616;BME280;801;47.982;7.810;2023-04-06T02:07:30;98842.84;;;3.33;97.79
1616;BME280;801;47.982;7.810;2023-04-06T02:09:57;98848.56;;;3.30;97.81
1616;BME280;801;47.982;7.810;2023-04-06T02:12:23;98847.97;;;3.21;98.90
1616;BME280;801;47.982;7.810;2023-04-06T02:14:51;98840.41;;;3.18;100.00
1616;BME280;801;47.982;7.810;2023-04-06T02:17:18;98844.50;;;3.14;99.86
1616;BME280;801;47.982;7.810;2023-04-06T02:19:44;98840.84;;;3.15;99.20
1616;BME280;801;47.982;7.810;2023-04-06T02:22:11;98838.38;;;3.07;99.43
1616;BME280;801;47.982;7.810;2023-04-06T02:24:37;98829.00;;;3.04;99.07
1616;BME280;801;47.982;7.810;2023-04-06T02:27:04;98831.84;;;3.03;99.78
1616;BME280;801;47.982;7.810;2023-04-06T02:29:31;98834.50;;;3.03;100.00
1616;BME280;801;47.982;7.810;2023-04-06T02:31:58;98836.34;;;3.02;100.00
1616;BME280;801;47.982;7.810;2023-04-06T02:34:25;98830.22;;;2.95;100.00
1616;BME280;801;47.982;7.810;2023-04-06T02:36:51;98834.31;;;3.04;100.00
1616;BME280;801;47.982;7.810;2023-04-06T02:39:18;98826.53;;;2.96;100.00
1616;BME280;801;47.982;7.810;2023-04-06T02:41:45;98833.09;;;3.00;100.00
1616;BME280;801;47.982;7.810;2023-04-06T02:44:11;98831.25;;;3.01;100.00
1616;BME280;801;47.982;7.810;2023-04-06T02:46:38;98827.97;;;2.92;100.00
1616;BME280;801;47.982;7.810;2023-04-06T02:49:06;98824.69;;;2.90;100.00
1616;BME280;801;47.982;7.810;2023-04-06T02:51:32;98823.28;;;2.94;99.56
1616;BME280;801;47.982;7.810;2023-04-06T02:53:59;98822.88;;;2.97;100.00
1616;BME280;801;47.982;7.810;2023-04-06T02:56:25;98825.13;;;2.94;100.00
1616;BME280;801;47.982;7.810;2023-04-06T02:58:52;98825.31;;;2.92;100.00
1616;BME280;801;47.982;7.810;2023-04-06T03:01:18;98816.13;;;2.88;100.00
1616;BME280;801;47.982;7.810;2023-04-06T03:03:45;98821.66;;;2.86;100.00
1616;BME280;801;47.982;7.810;2023-04-06T03:06:13;98823.28;;;2.87;100.00
1616;BME280;801;47.982;7.810;2023-04-06T03:08:39;98820.22;;;2.84;100.00
1616;BME280;801;47.982;7.810;2023-04-06T03:11:06;98822.47;;;2.87;100.00
1616;BME280;801;47.982;7.810;2023-04-06T03:13:32;98821.25;;;2.83;100.00
1616;BME280;801;47.982;7.810;2023-04-06T03:15:59;98814.69;;;2.72;100.00
1616;BME280;801;47.982;7.810;2023-04-06T03:18:25;98809.38;;;2.72;100.00
1616;BME280;801;47.982;7.810;2023-04-06T03:20:52;98820.84;;;2.59;100.00
1616;BME280;801;47.982;7.810;2023-04-06T03:23:21;98819.59;;;2.55;100.00
1616;BME280;801;47.982;7.810;2023-04-06T03:25:48;98829.16;;;2.43;100.00
1616;BME280;801;47.982;7.810;2023-04-06T03:28:14;98821.00;;;2.44;100.00
1616;BME280;801;47.982;7.810;2023-04-06T03:30:41;98817.94;;;2.41;100.00
1616;BME280;801;47.982;7.810;2023-04-06T03:33:07;98823.47;;;2.39;100.00
1616;BME280;801;47.982;7.810;2023-04-06T03:35:34;98824.06;;;2.28;100.00
1616;BME280;801;47.982;7.810;2023-04-06T03:38:01;98819.16;;;2.32;100.00
1616;BME280;801;47.982;7.810;2023-04-06T03:40:30;98825.69;;;2.36;100.00
1616;BME280;801;47.982;7.810;2023-04-06T03:42:56;98828.97;;;2.38;100.00
1616;BME280;801;47.982;7.810;2023-04-06T03:45:23;98821.59;;;2.26;100.00
1616;BME280;801;47.982;7.810;2023-04-06T03:47:49;98830.97;;;2.22;100.00
1616;BME280;801;47.982;7.810;2023-04-06T03:50:16;98822.81;;;2.17;100.00
1616;BME280;801;47.982;7.810;2023-04-06T03:52:42;98834.22;;;2.18;100.00
1616;BME280;801;47.982;7.810;2023-04-06T03:55:09;98827.66;;;2.07;100.00
1616;BME280;801;47.982;7.810;2023-04-06T03:57:37;98822.75;;;2.04;100.00
1616;BME280;801;47.982;7.810;2023-04-06T04:00:04;98835.75;;;1.85;100.00
1616;BME280;801;47.982;7.810;2023-04-06T04:02:31;98832.09;;;1.93;100.00
1616;BME280;801;47.982;7.810;2023-04-06T04:04:57;98842.25;;;1.83;100.00
1616;BME280;801;47.982;7.810;2023-04-06T04:07:24;98838.44;;;1.92;100.00
1616;BME280;801;47.982;7.810;2023-04-06T04:09:51;98842.06;;;1.91;100.00
1616;BME280;801;47.982;7.810;2023-04-06T04:12:17;98847.56;;;1.90;100.00
1616;BME280;801;47.982;7.810;2023-04-06T04:14:45;98847.56;;;1.90;100.00
1616;BME280;801;47.982;7.810;2023-04-06T04:17:11;98847.91;;;1.73;100.00
1616;BME280;801;47.982;7.810;2023-04-06T04:19:38;98852.84;;;1.83;100.00
1616;BME280;801;47.982;7.810;2023-04-06T04:22:04;98855.72;;;1.81;100.00
1616;BME280;801;47.982;7.810;2023-04-06T04:24:31;98849.19;;;1.84;100.00
1616;BME280;801;47.982;7.810;2023-04-06T04:26:59;98855.72;;;1.81;100.00
1616;BME280;801;47.982;7.810;2023-04-06T04:29:26;98850.41;;;1.81;100.00
1616;BME280;801;47.982;7.810;2023-04-06T04:31:54;98855.13;;;1.86;100.00
1616;BME280;801;47.982;7.810;2023-04-06T04:34:21;98864.25;;;1.77;100.00
1616;BME280;801;47.982;7.810;2023-04-06T04:36:50;98863.69;;;1.88;100.00
1616;BME280;801;47.982;7.810;2023-04-06T04:39:16;98865.09;;;1.84;100.00
1616;BME280;801;47.982;7.810;2023-04-06T04:41:43;98856.53;;;1.82;100.00
1616;BME280;801;47.982;7.810;2023-04-06T04:44:09;98855.91;;;1.80;100.00
1616;BME280;801;47.982;7.810;2023-04-06T04:46:36;98862.63;;;1.82;100.00
1616;BME280;801;47.982;7.810;2023-04-06T04:49:04;98863.03;;;1.79;100.00
1616;BME280;801;47.982;7.810;2023-04-06T04:51:30;98857.69;;;1.73;100.00
1616;BME280;801;47.982;7.810;2023-04-06T04:53:57;98861.16;;;1.73;100.00
1616;BME280;801;47.982;7.810;2023-04-06T04:56:24;98862.59;;;1.76;100.00
1616;BME280;801;47.982;7.810;2023-04-06T04:58:52;98866.06;;;1.76;100.00
1616;BME280;801;47.982;7.810;2023-04-06T05:01:19;98867.91;;;1.76;100.00
1616;BME280;801;47.982;7.810;2023-04-06T05:03:45;98864.22;;;1.70;100.00
1616;BME280;801;47.982;7.810;2023-04-06T05:06:13;98874.00;;;1.76;100.00
1616;BME280;801;47.982;7.810;2023-04-06T05:08:40;98868.38;;;1.86;100.00
1616;BME280;801;47.982;7.810;2023-04-06T05:11:06;98873.19;;;1.76;100.00
1616;BME280;801;47.982;7.810;2023-04-06T05:13:33;98875.47;;;1.79;100.00
1616;BME280;801;47.982;7.810;2023-04-06T05:15:59;98874.44;;;1.80;100.00
1616;BME280;801;47.982;7.810;2023-04-06T05:18:26;98874.41;;;1.73;100.00
1616;BME280;801;47.982;7.810;2023-04-06T05:20:52;98867.69;;;1.71;100.00
1616;BME280;801;47.982;7.810;2023-04-06T05:23:20;98873.63;;;1.79;100.00
1616;BME280;801;47.982;7.810;2023-04-06T05:25:47;98873.25;;;1.89;100.00
1616;BME280;801;47.982;7.810;2023-04-06T05:28:13;98876.56;;;1.98;100.00
1616;BME280;801;47.982;7.810;2023-04-06T05:30:42;98872.47;;;1.95;100.00
1616;BME280;801;47.982;7.810;2023-04-06T05:33:09;98879.63;;;1.95;100.00
1616;BME280;801;47.982;7.810;2023-04-06T05:35:35;98876.72;;;1.90;100.00
1616;BME280;801;47.982;7.810;2023-04-06T05:38:02;98876.78;;;2.03;100.00
1616;BME280;801;47.982;7.810;2023-04-06T05:40:30;98876.59;;;2.04;100.00
1616;BME280;801;47.982;7.810;2023-04-06T05:42:56;98883.75;;;2.11;100.00
1616;BME280;801;47.982;7.810;2023-04-06T05:45:23;98888.28;;;2.17;100.00
1616;BME280;801;47.982;7.810;2023-04-06T05:47:49;98888.09;;;2.25;100.00
1616;BME280;801;47.982;7.810;2023-04-06T05:50:16;98885.25;;;2.33;100.00
1616;BME280;801;47.982;7.810;2023-04-06T05:52:42;98889.97;;;2.38;100.00
1616;BME280;801;47.982;7.810;2023-04-06T05:55:11;98884.88;;;2.43;100.00
1616;BME280;801;47.982;7.810;2023-04-06T05:57:39;98884.88;;;2.49;100.00
1616;BME280;801;47.982;7.810;2023-04-06T06:00:07;98882.22;;;2.43;100.00
1616;BME280;801;47.982;7.810;2023-04-06T06:02:34;98886.91;;;2.47;100.00
1616;BME280;801;47.982;7.810;2023-04-06T06:05:00;98893.28;;;2.53;100.00
1616;BME280;801;47.982;7.810;2023-04-06T06:07:27;98894.28;;;2.59;100.00
1616;BME280;801;47.982;7.810;2023-04-06T06:09:56;98895.94;;;2.66;100.00
1616;BME280;801;47.982;7.810;2023-04-06T06:12:22;98896.38;;;2.77;100.00
1616;BME280;801;47.982;7.810;2023-04-06T06:14:50;98890.06;;;2.84;100.00
1616;BME280;801;47.982;7.810;2023-04-06T06:17:17;98891.28;;;2.88;100.00
1616;BME280;801;47.982;7.810;2023-04-06T06:19:43;98898.03;;;2.84;100.00
1616;BME280;801;47.982;7.810;2023-04-06T06:22:09;98898.03;;;2.91;100.00
1616;BME280;801;47.982;7.810;2023-04-06T06:24:36;98897.63;;;3.14;100.00
1616;BME280;801;47.982;7.810;2023-04-06T06:27:02;98897.22;;;3.10;98.57
1616;BME280;801;47.982;7.810;2023-04-06T06:29:29;98888.84;;;3.27;98.90
1616;BME280;801;47.982;7.810;2023-04-06T06:31:57;98891.91;;;3.37;98.67
1616;BME280;801;47.982;7.810;2023-04-06T06:34:23;98895.56;;;3.49;97.97
1616;BME280;801;47.982;7.810;2023-04-06T06:36:50;98895.97;;;3.46;97.69
1616;BME280;801;47.982;7.810;2023-04-06T06:39:20;98892.25;;;3.67;96.45
1616;BME280;801;47.982;7.810;2023-04-06T06:41:46;98889.56;;;3.74;94.32
1616;BME280;801;47.982;7.810;2023-04-06T06:44:13;98894.25;;;3.79;95.65
1616;BME280;801;47.982;7.810;2023-04-06T06:46:39;98893.00;;;3.88;94.46
1616;BME280;801;47.982;7.810;2023-04-06T06:49:07;98890.94;;;3.97;93.18
1616;BME280;801;47.982;7.810;2023-04-06T06:51:34;98895.84;;;4.00;92.47
1616;BME280;801;47.982;7.810;2023-04-06T06:54:00;98890.66;;;4.18;91.20
1616;BME280;801;47.982;7.810;2023-04-06T06:56:27;98898.97;;;4.28;90.71
1616;BME280;801;47.982;7.810;2023-04-06T06:58:53;98900.19;;;4.32;88.91
1616;BME280;801;47.982;7.810;2023-04-06T07:01:20;98898.94;;;4.35;87.63
1616;BME280;801;47.982;7.810;2023-04-06T07:03:46;98899.09;;;4.53;87.91
1616;BME280;801;47.982;7.810;2023-04-06T07:06:14;98897.19;;;4.61;87.14
1616;BME280;801;47.982;7.810;2023-04-06T07:08:41;98904.19;;;4.55;85.97
1616;BME280;801;47.982;7.810;2023-04-06T07:11:07;98904.41;;;4.53;84.90
1616;BME280;801;47.982;7.810;2023-04-06T07:13:34;98909.41;;;4.68;83.98
1616;BME280;801;47.982;7.810;2023-04-06T07:16:00;98909.34;;;4.82;82.29
1616;BME280;801;47.982;7.810;2023-04-06T07:18:26;98902.81;;;4.77;88.73
1616;BME280;801;47.982;7.810;2023-04-06T07:20:53;98897.41;;;4.59;89.98
1616;BME280;801;47.982;7.810;2023-04-06T07:23:21;98907.03;;;4.60;90.02
1616;BME280;801;47.982;7.810;2023-04-06T07:25:47;98911.88;;;4.70;88.53
1616;BME280;801;47.982;7.810;2023-04-06T07:28:16;98909.56;;;4.80;87.93
1616;BME280;801;47.982;7.810;2023-04-06T07:30:42;98900.69;;;4.86;87.13
1616;BME280;801;47.982;7.810;2023-04-06T07:33:09;98901.31;;;4.88;85.72
1616;BME280;801;47.982;7.810;2023-04-06T07:35:36;98901.06;;;4.96;84.74
1616;BME280;801;47.982;7.810;2023-04-06T07:38:03;98905.88;;;5.06;83.19
1616;BME280;801;47.982;7.810;2023-04-06T07:40:31;98907.91;;;5.11;82.86
1616;BME280;801;47.982;7.810;2023-04-06T07:42:58;98908.25;;;5.21;82.61
1616;BME280;801;47.982;7.810;2023-04-06T07:45:24;98911.56;;;5.16;83.88
1616;BME280;801;47.982;7.810;2023-04-06T07:47:51;98905.25;;;5.36;84.02
1616;BME280;801;47.982;7.810;2023-04-06T07:50:17;98904.34;;;5.42;84.06
1616;BME280;801;47.982;7.810;2023-04-06T07:52:44;98905.94;;;5.50;83.43
1616;BME280;801;47.982;7.810;2023-04-06T07:55:10;98903.31;;;5.68;82.75
1616;BME280;801;47.982;7.810;2023-04-06T07:57:38;98895.22;;;5.75;80.19
1616;BME280;801;47.982;7.810;2023-04-06T08:00:06;98899.50;;;5.76;79.81
1616;BME280;801;47.982;7.810;2023-04-06T08:02:34;98905.50;;;5.96;78.61
1616;BME280;801;47.982;7.810;2023-04-06T08:05:00;98901.78;;;5.97;78.47
1616;BME280;801;47.982;7.810;2023-04-06T08:07:27;98897.50;;;6.15;77.08
1616;BME280;801;47.982;7.810;2023-04-06T08:09:53;98899.69;;;6.36;75.55
1616;BME280;801;47.982;7.810;2023-04-06T08:12:20;98906.59;;;6.26;74.37
1616;BME280;801;47.982;7.810;2023-04-06T08:14:48;98904.44;;;6.34;74.09
1616;BME280;801;47.982;7.810;2023-04-06T08:17:15;98904.75;;;6.56;67.88
1616;BME280;801;47.982;7.810;2023-04-06T08:19:42;98900.56;;;6.60;67.98
1616;BME280;801;47.982;7.810;2023-04-06T08:22:08;98897.63;;;6.80;67.24
1616;BME280;801;47.982;7.810;2023-04-06T08:24:35;98898.81;;;6.96;61.55
1616;BME280;801;47.982;7.810;2023-04-06T08:27:01;98903.91;;;6.74;65.52
1616;BME280;801;47.982;7.810;2023-04-06T08:29:28;98898.50;;;7.04;64.33
1616;BME280;801;47.982;7.810;2023-04-06T08:31:56;98907.03;;;7.37;62.45
1616;BME280;801;47.982;7.810;2023-04-06T08:34:22;98907.00;;;7.13;57.47
1616;BME280;801;47.982;7.810;2023-04-06T08:36:49;98901.44;;;7.38;56.79
1616;BME280;801;47.982;7.810;2023-04-06T08:39:15;98901.56;;;7.55;57.14
1616;BME280;801;47.982;7.810;2023-04-06T08:41:42;98904.94;;;7.62;57.62
1616;BME280;801;47.982;7.810;2023-04-06T08:44:09;98893.41;;;7.50;56.20
1616;BME280;801;47.982;7.810;2023-04-06T08:46:36;98896.69;;;7.52;55.71
1616;BME280;801;47.982;7.810;2023-04-06T08:49:04;98897.09;;;7.96;53.74
1616;BME280;801;47.982;7.810;2023-04-06T08:51:32;98897.44;;;8.11;56.40
1616;BME280;801;47.982;7.810;2023-04-06T08:53:59;98892.88;;;8.24;54.19
1616;BME280;801;47.982;7.810;2023-04-06T08:56:27;98894.31;;;8.43;55.78
1616;BME280;801;47.982;7.810;2023-04-06T08:58:55;98897.13;;;8.37;56.75
1616;BME280;801;47.982;7.810;2023-04-06T09:01:25;98898.81;;;8.55;55.85
1616;BME280;801;47.982;7.810;2023-04-06T09:03:55;98897.91;;;8.37;57.44
1616;BME280;801;47.982;7.810;2023-04-06T09:06:24;98897.59;;;8.74;59.54
1616;BME280;801;47.982;7.810;2023-04-06T09:08:51;98900.53;;;8.89;59.48
1616;BME280;801;47.982;7.810;2023-04-06T09:11:18;98895.25;;;8.94;59.86
1616;BME280;801;47.982;7.810;2023-04-06T09:13:46;98902.72;;;8.92;59.14
1616;BME280;801;47.982;7.810;2023-04-06T09:16:13;98907.69;;;9.01;58.69
1616;BME280;801;47.982;7.810;2023-04-06T09:18:40;98902.34;;;9.34;58.91
1616;BME280;801;47.982;7.810;2023-04-06T09:21:07;98900.72;;;9.33;56.04
1616;BME280;801;47.982;7.810;2023-04-06T09:23:36;98906.53;;;9.64;57.37
1616;BME280;801;47.982;7.810;2023-04-06T09:26:06;98900.25;;;9.75;53.24
1616;BME280;801;47.982;7.810;2023-04-06T09:28:47;98896.94;;;9.68;54.48
1616;BME280;801;47.982;7.810;2023-04-06T09:31:13;98903.06;;;10.03;58.26
1616;BME280;801;47.982;7.810;2023-04-06T09:33:41;98910.28;;;10.02;59.85
1616;BME280;801;47.982;7.810;2023-04-06T09:36:08;98907.28;;;9.98;56.62
1616;BME280;801;47.982;7.810;2023-04-06T09:38:37;98901.97;;;10.43;61.87
1616;BME280;801;47.982;7.810;2023-04-06T09:41:04;98904.75;;;10.31;54.49
1616;BME280;801;47.982;7.810;2023-04-06T09:43:31;98902.00;;;10.26;51.79
1616;BME280;801;47.982;7.810;2023-04-06T09:45:59;98903.28;;;10.01;50.71
1616;BME280;801;47.982;7.810;2023-04-06T09:48:28;98899.72;;;10.17;48.13
1616;BME280;801;47.982;7.810;2023-04-06T09:50:59;98896.38;;;10.49;50.46
1616;BME280;801;47.982;7.810;2023-04-06T09:53:30;98897.66;;;10.69;50.73
1616;BME280;801;47.982;7.810;2023-04-06T09:56:02;98903.50;;;10.61;51.67
1616;BME280;801;47.982;7.810;2023-04-06T09:58:33;98897.00;;;10.56;49.30
1616;BME280;801;47.982;7.810;2023-04-06T10:01:04;98896.69;;;10.80;50.50
1616;BME280;801;47.982;7.810;2023-04-06T10:03:36;98899.69;;;10.84;47.28
1616;BME280;801;47.982;7.810;2023-04-06T10:06:13;98892.47;;;10.89;48.04
1616;BME280;801;47.982;7.810;2023-04-06T10:08:43;98891.59;;;11.11;47.51
1616;BME280;801;47.982;7.810;2023-04-06T10:11:13;98896.44;;;11.14;44.17
1616;BME280;801;47.982;7.810;2023-04-06T10:13:39;98887.38;;;11.25;43.80
1616;BME280;801;47.982;7.810;2023-04-06T10:16:07;98894.38;;;11.21;43.40
1616;BME280;801;47.982;7.810;2023-04-06T10:18:34;98890.75;;;11.42;44.07
1616;BME280;801;47.982;7.810;2023-04-06T10:21:06;98886.81;;;11.55;42.61
1616;BME280;801;47.982;7.810;2023-04-06T10:23:35;98877.69;;;12.09;42.50
1616;BME280;801;47.982;7.810;2023-04-06T10:26:03;98882.41;;;11.81;41.10
1616;BME280;801;47.982;7.810;2023-04-06T10:28:33;98877.91;;;11.92;40.94
1616;BME280;801;47.982;7.810;2023-04-06T10:31:02;98885.34;;;12.33;42.46
1616;BME280;801;47.982;7.810;2023-04-06T10:33:30;98885.69;;;11.89;40.83
1616;BME280;801;47.982;7.810;2023-04-06T10:35:57;98878.41;;;11.89;40.77
1616;BME280;801;47.982;7.810;2023-04-06T10:38:33;98881.19;;;12.10;40.99
1616;BME280;801;47.982;7.810;2023-04-06T10:41:03;98869.06;;;12.07;40.30
1616;BME280;801;47.982;7.810;2023-04-06T10:43:33;98878.56;;;12.25;39.20
1616;BME280;801;47.982;7.810;2023-04-06T10:46:00;98875.34;;;11.75;39.84
1616;BME280;801;47.982;7.810;2023-04-06T10:48:37;98873.97;;;12.15;38.49
1616;BME280;801;47.982;7.810;2023-04-06T10:51:07;98881.56;;;12.29;38.26
1616;BME280;801;47.982;7.810;2023-04-06T10:53:34;98875.44;;;12.59;36.76
1616;BME280;801;47.982;7.810;2023-04-06T10:56:02;98881.56;;;12.29;36.09
1616;BME280;801;47.982;7.810;2023-04-06T10:58:29;98883.16;;;12.24;35.19
1616;BME280;801;47.982;7.810;2023-04-06T11:00:57;98877.38;;;12.99;36.44
1616;BME280;801;47.982;7.810;2023-04-06T11:03:24;98872.44;;;12.45;35.10
1616;BME280;801;47.982;7.810;2023-04-06T11:05:52;98872.00;;;13.04;36.15
1616;BME280;801;47.982;7.810;2023-04-06T11:08:23;98866.56;;;12.69;36.04
1616;BME280;801;47.982;7.810;2023-04-06T11:10:49;98862.75;;;12.54;35.49
1616;BME280;801;47.982;7.810;2023-04-06T11:13:16;98867.53;;;12.32;35.50
1616;BME280;801;47.982;7.810;2023-04-06T11:15:43;98865.78;;;13.45;35.35
1616;BME280;801;47.982;7.810;2023-04-06T11:18:10;98867.69;;;13.34;33.28
1616;BME280;801;47.982;7.810;2023-04-06T11:20:37;98874.16;;;13.38;32.65
1616;BME280;801;47.982;7.810;2023-04-06T11:23:03;98866.63;;;13.35;33.02
1616;BME280;801;47.982;7.810;2023-04-06T11:25:31;98864.97;;;12.83;33.94
1616;BME280;801;47.982;7.810;2023-04-06T11:27:57;98862.81;;;13.41;33.15
1616;BME280;801;47.982;7.810;2023-04-06T11:30:24;98853.06;;;12.58;33.97
1616;BME280;801;47.982;7.810;2023-04-06T11:32:51;98862.81;;;13.16;33.75
1616;BME280;801;47.982;7.810;2023-04-06T11:35:23;98855.78;;;13.50;33.12
1616;BME280;801;47.982;7.810;2023-04-06T11:37:50;98851.41;;;13.80;32.80
1616;BME280;801;47.982;7.810;2023-04-06T11:40:21;98841.06;;;14.03;33.20
1616;BME280;801;47.982;7.810;2023-04-06T11:42:53;98851.19;;;13.66;33.74
1616;BME280;801;47.982;7.810;2023-04-06T11:45:19;98846.03;;;13.70;33.20
1616;BME280;801;47.982;7.810;2023-04-06T11:47:55;98842.84;;;13.37;32.42
1616;BME280;801;47.982;7.810;2023-04-06T11:50:23;98840.84;;;14.49;32.23
1616;BME280;801;47.982;7.810;2023-04-06T11:52:57;98831.31;;;14.02;31.17
1616;BME280;801;47.982;7.810;2023-04-06T11:55:24;98838.28;;;14.13;31.41
1616;BME280;801;47.982;7.810;2023-04-06T11:57:51;98828.31;;;14.63;31.54
1616;BME280;801;47.982;7.810;2023-04-06T12:00:18;98833.78;;;14.92;31.08
1616;BME280;801;47.982;7.810;2023-04-06T12:02:46;98831.50;;;14.21;31.22
1616;BME280;801;47.982;7.810;2023-04-06T12:05:13;98833.94;;;14.22;31.87
1616;BME280;801;47.982;7.810;2023-04-06T12:07:41;98825.03;;;14.66;31.47
1616;BME280;801;47.982;7.810;2023-04-06T12:10:08;98830.13;;;14.73;31.58
1616;BME280;801;47.982;7.810;2023-04-06T12:12:34;98826.00;;;13.81;33.10
1616;BME280;801;47.982;7.810;2023-04-06T12:15:01;98821.34;;;14.02;33.05
1616;BME280;801;47.982;7.810;2023-04-06T12:17:27;98823.34;;;13.71;32.86
1616;BME280;801;47.982;7.810;2023-04-06T12:19:54;98816.81;;;13.87;32.66
1616;BME280;801;47.982;7.810;2023-04-06T12:22:21;98817.56;;;14.48;33.08
1616;BME280;801;47.982;7.810;2023-04-06T12:24:48;98816.50;;;14.44;32.39
1616;BME280;801;47.982;7.810;2023-04-06T12:27:15;98811.66;;;13.91;33.46
1616;BME280;801;47.982;7.810;2023-04-06T12:29:41;98819.00;;;13.80;32.26
1616;BME280;801;47.982;7.810;2023-04-06T12:32:08;98810.31;;;13.83;31.99
1616;BME280;801;47.982;7.810;2023-04-06T12:34:35;98808.03;;;14.16;32.63
1616;BME280;801;47.982;7.810;2023-04-06T12:37:01;98805.41;;;14.01;33.12
1616;BME280;801;47.982;7.810;2023-04-06T12:39:28;98806.84;;;14.32;33.13
1616;BME280;801;47.982;7.810;2023-04-06T12:41:56;98807.00;;;14.02;32.94
1616;BME280;801;47.982;7.810;2023-04-06T12:44:23;98809.25;;;13.84;33.28
1616;BME280;801;47.982;7.810;2023-04-06T12:46:49;98808.59;;;14.08;33.10
1616;BME280;801;47.982;7.810;2023-04-06T12:49:16;98806.19;;;14.51;32.26
1616;BME280;801;47.982;7.810;2023-04-06T12:51:44;98801.38;;;14.43;32.38
1616;BME280;801;47.982;7.810;2023-04-06T12:54:10;98793.22;;;14.48;32.67
1616;BME280;801;47.982;7.810;2023-04-06T12:56:37;98795.38;;;14.51;33.07
1616;BME280;801;47.982;7.810;2023-04-06T12:59:05;98797.84;;;14.47;33.12
1616;BME280;801;47.982;7.810;2023-04-06T13:01:31;98791.84;;;14.61;32.92
1616;BME280;801;47.982;7.810;2023-04-06T13:03:58;98793.81;;;14.40;32.51
1616;BME280;801;47.982;7.810;2023-04-06T13:06:24;98788.75;;;14.28;32.43
1616;BME280;801;47.982;7.810;2023-04-06T13:08:52;98789.28;;;14.30;32.58
1616;BME280;801;47.982;7.810;2023-04-06T13:11:19;98791.69;;;14.37;32.51
1616;BME280;801;47.982;7.810;2023-04-06T13:13:48;98786.38;;;14.21;32.32
1616;BME280;801;47.982;7.810;2023-04-06T13:16:16;98788.50;;;15.03;33.50
1616;BME280;801;47.982;7.810;2023-04-06T13:18:42;98783.34;;;14.28;31.85
1616;BME280;801;47.982;7.810;2023-04-06T13:21:13;98784.16;;;14.28;32.04
1616;BME280;801;47.982;7.810;2023-04-06T13:23:41;98779.13;;;14.51;32.49
1616;BME280;801;47.982;7.810;2023-04-06T13:26:07;98777.81;;;14.48;32.35
1616;BME280;801;47.982;7.810;2023-04-06T13:28:35;98785.50;;;13.76;32.36
1616;BME280;801;47.982;7.810;2023-04-06T13:31:03;98776.34;;;14.27;32.61
1616;BME280;801;47.982;7.810;2023-04-06T13:33:31;98782.81;;;14.70;32.15
1616;BME280;801;47.982;7.810;2023-04-06T13:35:58;98777.50;;;14.94;32.06